createdAt,value
2019-03-01T00:03:08.035Z,8.8
2019-03-01T00:13:07.236Z,8.8
2019-03-01T00:23:06.444Z,8.9
2019-03-01T00:33:05.656Z,8.9
2019-03-01T00:43:04.854Z,8.9
2019-03-01T00:53:04.060Z,8.9
2019-03-01T01:03:03.265Z,8.9
2019-03-01T01:13:02.523Z,8.9
2019-03-01T01:23:01.677Z,8.8
2019-03-01T01:33:00.883Z,8.8
2019-03-01T01:43:00.088Z,8.9
2019-03-01T01:52:59.293Z,8.9
2019-03-01T02:02:58.497Z,9.1
2019-03-01T02:12:57.705Z,9.1
2019-03-01T02:22:56.909Z,9.2
2019-03-01T02:32:56.113Z,9.2
2019-03-01T02:42:55.317Z,9.3
2019-03-01T02:52:54.531Z,9.4
2019-03-01T03:02:53.749Z,9.8
2019-03-01T03:12:52.943Z,10.5
2019-03-01T03:22:52.136Z,10.9
2019-03-01T03:32:51.343Z,10.9
2019-03-01T03:42:50.600Z,10.7
2019-03-01T03:52:49.751Z,10.4
2019-03-01T04:02:48.965Z,10.2
2019-03-01T04:12:48.866Z,10.1
2019-03-01T04:22:48.061Z,10.3
2019-03-01T04:32:47.264Z,10.4
2019-03-01T04:42:46.465Z,10.6
2019-03-01T04:52:45.668Z,10.6
2019-03-01T05:02:44.922Z,10.4
2019-03-01T05:12:44.075Z,10.3
2019-03-01T05:22:43.278Z,10
2019-03-01T05:32:42.545Z,9.7
2019-03-01T05:42:41.692Z,9.9
2019-03-01T05:52:40.899Z,11
2019-03-01T06:02:40.107Z,12.1
2019-03-01T06:12:39.317Z,13.3
2019-03-01T06:22:38.524Z,14.4
2019-03-01T06:32:37.731Z,15.8
2019-03-01T06:42:36.938Z,16.8
2019-03-01T06:52:36.151Z,18.3
2019-03-01T07:02:35.349Z,18.3
2019-03-01T07:12:34.555Z,20.1
2019-03-01T07:22:33.756Z,21.8
2019-03-01T07:32:32.964Z,23.5
2019-03-01T07:42:32.168Z,24.9
2019-03-01T07:52:31.370Z,22.9
2019-03-01T08:02:30.577Z,20.4
2019-03-01T08:12:30.869Z,19.8
2019-03-01T08:22:28.990Z,19.8
2019-03-01T08:32:30.655Z,20.7
2019-03-01T08:42:27.401Z,22.6
2019-03-01T08:52:26.607Z,22.4
2019-03-01T09:02:25.831Z,22.5
2019-03-01T09:12:26.957Z,23.7
2019-03-01T09:22:27.954Z,23.7
2019-03-01T09:32:23.428Z,23.8
2019-03-01T09:42:22.633Z,23.7
2019-03-01T09:52:23.500Z,23.4
2019-03-01T10:02:21.042Z,22.9
2019-03-01T10:12:20.250Z,22.4
2019-03-01T10:22:19.456Z,22.1
2019-03-01T10:32:18.661Z,21.6
2019-03-01T10:42:17.870Z,21.4
2019-03-01T10:52:17.082Z,21.4
2019-03-01T11:02:16.294Z,21.3
2019-03-01T11:12:15.507Z,21
2019-03-01T11:22:14.721Z,20.8
2019-03-01T11:32:13.986Z,20.3
2019-03-01T11:42:13.147Z,20.1
2019-03-01T11:52:12.413Z,19.3
2019-03-01T12:02:11.570Z,18.9
2019-03-01T12:12:10.780Z,18.6
2019-03-01T12:22:16.858Z,18.3
2019-03-01T12:32:09.206Z,17.8
2019-03-01T12:42:08.412Z,17.4
2019-03-01T12:52:07.671Z,17.1
2019-03-01T13:02:06.829Z,16.8
2019-03-01T13:12:06.087Z,16.6
2019-03-01T13:26:06.035Z,16.3
2019-03-01T13:36:04.580Z,16.3
2019-03-01T13:46:03.114Z,16.1
2019-03-01T13:56:02.322Z,15.9
2019-03-01T14:06:02.198Z,15.6
2019-03-01T14:16:00.743Z,15.4
2019-03-01T14:26:00.001Z,15.2
2019-03-01T14:36:02.658Z,15
2019-03-01T14:45:58.581Z,14.9
2019-03-01T14:55:58.837Z,14.8
2019-03-01T15:05:57.162Z,14.6
2019-03-01T15:15:56.457Z,14.4
2019-03-01T15:25:55.663Z,14.2
2019-03-01T15:35:54.872Z,14
2019-03-01T15:45:54.081Z,13.8
2019-03-01T15:55:53.298Z,13.4
2019-03-01T16:05:52.498Z,13.2
2019-03-01T16:15:51.705Z,12.9
2019-03-01T16:25:53.016Z,13.1
2019-03-01T16:35:51.585Z,13.1
2019-03-01T16:45:49.335Z,13
2019-03-01T16:55:49.292Z,13
2019-03-01T17:05:47.762Z,12.9
2019-03-01T17:15:48.356Z,12.9
2019-03-01T17:25:47.633Z,12.8
2019-03-01T17:35:45.415Z,12.8
2019-03-01T17:45:44.629Z,12.7
2019-03-01T17:55:43.844Z,12.5
2019-03-01T18:05:43.069Z,12.4
2019-03-01T18:15:44.916Z,12.2
2019-03-01T18:25:41.485Z,12.1
2019-03-01T18:35:40.732Z,12.1
2019-03-01T18:45:41.827Z,12
2019-03-01T18:55:39.121Z,12
2019-03-01T19:05:40.012Z,12
2019-03-01T19:15:38.615Z,11.9
2019-03-01T19:25:38.028Z,11.9
2019-03-01T19:35:37.040Z,11.9
2019-03-01T19:45:37.488Z,12
2019-03-01T19:55:35.470Z,12.1
2019-03-01T20:05:34.682Z,12
2019-03-01T20:15:33.930Z,11.9
2019-03-01T20:25:33.107Z,11.9
2019-03-01T20:35:32.326Z,11.9
2019-03-01T20:45:31.611Z,11.9
2019-03-01T20:55:33.036Z,11.9
2019-03-01T21:13:03.932Z,11.9
2019-03-01T21:23:03.142Z,11.8
2019-03-01T21:33:02.347Z,11.8
2019-03-01T21:43:01.558Z,11.8
2019-03-01T21:53:01.641Z,11.6
2019-03-01T22:02:59.981Z,11.6
2019-03-01T22:13:00.388Z,11.4
2019-03-01T22:22:58.527Z,11.4
2019-03-01T22:32:57.821Z,11.4
2019-03-01T22:47:40.243Z,11.5
2019-03-01T22:57:39.453Z,11.4
2019-03-01T23:07:38.662Z,11.4
2019-03-01T23:17:37.871Z,11.4
2019-03-01T23:27:37.079Z,11.3
2019-03-01T23:37:38.799Z,11.3
2019-03-01T23:47:38.233Z,11.2
2019-03-01T23:57:37.889Z,11.1
